Aérodrome :
LOGIN :

S'inscrire | Disclaimer

   EN    FR    IT 

 










Légende :    VFR   VFR Marginal   IFR   IFR Intensif   IFR Très Intensif
Visi : 
Plafond : 
>= 8 km
>= 3000ft
5 à 8 km
1000 à 3000 ft
1500m à 5 km
500 à 1000 ft
800 à 1500m
200 à 500 ft
< 800m
< 200 ft
Symboles :   Orages  Brouillard  Fortes neiges  Fortes précipitations  Vent > 20 kt
SIGMETs :   Divers  Orages  Givrage  Turbulence  Onde Orograph.  Cendres Volcan.






- Altitude de l'aérodrome : 375 ft
- Code IATA : MST


EHBK - Maastricht Aachen

DERNIER METAR :
  • 100925Z AUTO 19009KT 160V220 9000 NSC 03/02 Q1025 NOSIG

METARs EXPIRÉS :
  • 100855Z AUTO 19009KT 170V230 9999 NSC 02/01 Q1026 NOSIG
  • 100825Z AUTO 20010KT 9999 NSC 02/01 Q1026 NOSIG
  • 100755Z AUTO 20009KT 9999 NCD 02/01 Q1026 NOSIG
  • 100725Z AUTO 20009KT 9999 NSC 01/01 Q1026 NOSIG
  • 100655Z AUTO 21010KT 9999 NSC 01/01 Q1025 NOSIG

TAF TAF EHBK
Valide du 10 à 06h jusqu'au 11 à 12h UTC


100513Z 1006/1112 23007KT CAVOK
BECMG 1010/1013 20015KT
BECMG 1015/1018 20020G30KT
TEMPO 1102/1106 4000 RA RADZ BKN012
BECMG 1103/1106 21012KT
BECMG 1106/1109 7000 -RADZ SCT008 BKN012
PROB40
TEMPO 1108/1112 4000 RADZ BKN006



MET'MAP, la Météo Aéronautique d'un coup d'oeil ! - Copyright ORBIFLY Décembre 2007 - Disclaimer

ORBIFLY MET'MAP TEAM :

Programmation & Développement : Alexandra Zaïnal
Sur une idée originale de : Baudouin d'Aumeries
Assistance à la programmation : Marc-Olivier Méhu
Soutien technique & logistique : Manuel Goepfert

Contact : metmap@orbifly.com




SOURCES & CREDITS :

   NOAA